Genesee, Illinois
Current Conditions -  °F | °C
As of 1:15 AM on Monday 22 Dec 2014 (Local Time) from KSQI Reporting Station
Overcast Overcast  
Wind Chill: 26°   Ceiling: 3400
Heat Index: 34°   Visibility: 5mi
Dew Point: 30°   Wind: 9mph
Humidity: 87%   Direction: 150°SSE
Pressure: 29.92"   Gusts: NA
Location:  41.8285°N, 89.9656°W
Report Text: KSQI 220715Z 15008KT 5SM BKN034 OVC043 01/M01 A2992 RMK AO1
Loading
Personal Weather Stations






























Interactive Weather Map New forecast layout! Learn more

10-Day Weather Forecast

Advertisements
Track Severe Weather on mobile